createdAt,value
2023-05-10T00:00:05.808Z,11.79
2023-05-10T00:00:37.440Z,11.74
2023-05-10T00:01:09.266Z,11.76
2023-05-10T00:01:41.472Z,11.76
2023-05-10T00:02:13.163Z,11.77
2023-05-10T00:02:45.139Z,11.76
2023-05-10T00:03:16.813Z,11.76
2023-05-10T00:03:48.693Z,11.77
2023-05-10T00:04:20.576Z,11.77
2023-05-10T00:04:52.377Z,11.76
2023-05-10T00:05:24.038Z,11.73
2023-05-10T00:05:55.700Z,11.69
2023-05-10T00:06:27.913Z,11.66
2023-05-10T00:06:59.553Z,11.63
2023-05-10T00:07:31.218Z,11.62
2023-05-10T00:08:02.840Z,11.59
2023-05-10T00:08:34.430Z,11.63
2023-05-10T00:09:06.245Z,11.62
2023-05-10T00:09:37.877Z,11.58
2023-05-10T00:10:09.886Z,11.59
2023-05-10T00:10:42.227Z,11.62
2023-05-10T00:11:13.842Z,11.58
2023-05-10T00:11:45.506Z,11.63
2023-05-10T00:12:17.260Z,11.55
2023-05-10T00:12:49.000Z,11.50
2023-05-10T00:13:20.925Z,11.52
2023-05-10T00:13:52.587Z,11.52
2023-05-10T00:14:24.177Z,11.50
2023-05-10T00:14:56.164Z,11.49
2023-05-10T00:15:27.971Z,11.47
2023-05-10T00:15:59.702Z,11.44
2023-05-10T00:16:31.530Z,11.46
2023-05-10T00:17:03.233Z,11.46
2023-05-10T00:17:34.845Z,11.44
2023-05-10T00:18:06.620Z,11.43
2023-05-10T00:18:38.303Z,11.42
2023-05-10T00:19:09.989Z,11.43
2023-05-10T00:19:41.609Z,11.40
2023-05-10T00:20:13.445Z,11.38
2023-05-10T00:20:47.090Z,11.35
2023-05-10T00:21:18.915Z,11.35
2023-05-10T00:21:50.602Z,11.35
2023-05-10T00:22:22.373Z,11.28
2023-05-10T00:22:54.031Z,11.32
2023-05-10T00:23:25.657Z,11.32
2023-05-10T00:23:57.384Z,11.30
2023-05-10T00:24:28.960Z,11.29
2023-05-10T00:25:00.667Z,11.26
2023-05-10T00:25:32.481Z,11.23
2023-05-10T00:26:04.223Z,11.28
2023-05-10T00:26:35.920Z,11.28
2023-05-10T00:27:07.498Z,11.26
2023-05-10T00:27:39.241Z,11.21
2023-05-10T00:28:11.096Z,11.21
2023-05-10T00:28:42.708Z,11.16
2023-05-10T00:29:14.515Z,11.14
2023-05-10T00:29:46.371Z,11.11
2023-05-10T00:30:18.371Z,11.11
2023-05-10T00:30:50.169Z,11.07
2023-05-10T00:31:21.788Z,11.09
2023-05-10T00:31:53.429Z,11.02
2023-05-10T00:32:25.223Z,11.02
2023-05-10T00:32:56.890Z,11.01
2023-05-10T00:33:28.556Z,11.02
2023-05-10T00:34:00.183Z,11.00
2023-05-10T00:34:31.973Z,10.98
2023-05-10T00:35:03.701Z,10.98
2023-05-10T00:35:35.318Z,10.92
2023-05-10T00:36:08.517Z,10.94
2023-05-10T00:36:40.204Z,10.92
2023-05-10T00:37:11.918Z,10.95
2023-05-10T00:37:43.535Z,10.95
2023-05-10T00:38:15.363Z,10.97
2023-05-10T00:38:46.936Z,11.01
2023-05-10T00:39:18.588Z,11.02
2023-05-10T00:39:50.426Z,11.07
2023-05-10T00:40:22.090Z,10.92
2023-05-10T00:40:53.769Z,10.92
2023-05-10T00:41:25.399Z,10.92
2023-05-10T00:41:56.973Z,10.91
2023-05-10T00:42:28.593Z,10.92
2023-05-10T00:43:01.564Z,10.92
2023-05-10T00:43:33.385Z,10.87
2023-05-10T00:44:05.389Z,10.90
2023-05-10T00:44:37.012Z,10.94
2023-05-10T00:45:09.071Z,10.90
2023-05-10T00:45:41.647Z,10.88
2023-05-10T00:46:14.932Z,10.85
2023-05-10T00:46:46.688Z,10.85
2023-05-10T00:47:18.631Z,10.81
2023-05-10T00:47:50.361Z,10.80
2023-05-10T00:48:22.822Z,10.80
2023-05-10T00:48:54.556Z,10.74
2023-05-10T00:49:26.356Z,10.65
2023-05-10T00:49:58.293Z,10.63
2023-05-10T00:50:30.048Z,10.65
2023-05-10T00:51:02.716Z,10.61
2023-05-10T00:51:34.704Z,10.59
2023-05-10T00:52:07.101Z,10.59
2023-05-10T00:52:38.876Z,10.59
2023-05-10T00:53:11.343Z,10.60
2023-05-10T00:53:44.326Z,10.61
2023-05-10T00:54:16.485Z,10.57
2023-05-10T00:54:48.717Z,10.57
2023-05-10T00:55:21.240Z,10.56
2023-05-10T00:55:52.838Z,10.56
2023-05-10T00:56:25.643Z,10.60
2023-05-10T00:56:58.100Z,10.59
2023-05-10T00:57:29.905Z,10.60
2023-05-10T00:58:02.632Z,10.65
2023-05-10T00:58:34.232Z,10.61
2023-05-10T00:59:05.907Z,10.65
2023-05-10T00:59:37.689Z,10.60
2023-05-10T01:00:10.765Z,10.54
2023-05-10T01:00:44.525Z,10.60
2023-05-10T01:01:16.163Z,10.61
2023-05-10T01:01:48.317Z,10.63
2023-05-10T01:02:20.075Z,10.63
2023-05-10T01:02:52.014Z,10.64
2023-05-10T01:03:23.910Z,10.61
2023-05-10T01:03:56.431Z,10.59
2023-05-10T01:04:29.455Z,10.59
2023-05-10T01:05:04.723Z,10.57
2023-05-10T01:05:36.514Z,10.54
2023-05-10T01:06:08.482Z,10.54
2023-05-10T01:06:44.138Z,10.47
2023-05-10T01:07:15.741Z,10.47
2023-05-10T01:07:47.373Z,10.47
2023-05-10T01:08:19.495Z,10.50
2023-05-10T01:08:51.280Z,10.56
2023-05-10T01:09:23.581Z,10.59
2023-05-10T01:09:55.205Z,10.57
2023-05-10T01:10:27.001Z,10.49
2023-05-10T01:10:59.200Z,10.47
2023-05-10T01:11:31.069Z,10.46
2023-05-10T01:12:04.105Z,10.46
2023-05-10T01:12:39.294Z,10.44
2023-05-10T01:13:11.534Z,10.42
2023-05-10T01:13:46.992Z,10.43
2023-05-10T01:14:20.863Z,10.40
2023-05-10T01:14:52.831Z,10.42
2023-05-10T01:15:24.816Z,10.42
2023-05-10T01:15:58.271Z,10.46
2023-05-10T01:16:34.502Z,10.37
2023-05-10T01:17:07.469Z,10.36
2023-05-10T01:17:41.393Z,10.36
2023-05-10T01:18:13.346Z,10.37
2023-05-10T01:18:46.184Z,10.33
2023-05-10T01:19:22.213Z,10.37
2023-05-10T01:19:53.874Z,10.34
2023-05-10T01:20:26.302Z,10.34
2023-05-10T01:21:14.463Z,10.37
2023-05-10T01:21:56.254Z,10.39
2023-05-10T01:22:43.070Z,10.34
2023-05-10T01:23:52.968Z,10.32
2023-05-10T01:25:02.138Z,10.37
2023-05-10T01:26:01.254Z,10.34
2023-05-10T01:26:38.944Z,10.40
2023-05-10T01:27:35.436Z,10.37
2023-05-10T01:28:15.839Z,10.37
2023-05-10T01:28:47.375Z,10.33
2023-05-10T01:29:40.081Z,10.36
2023-05-10T01:30:16.172Z,10.32
2023-05-10T01:31:02.969Z,10.30
2023-05-10T01:31:53.130Z,10.30
2023-05-10T01:33:04.100Z,10.33
2023-05-10T01:34:10.367Z,10.34
2023-05-10T01:35:09.851Z,10.32
2023-05-10T01:36:04.168Z,10.34
2023-05-10T01:36:35.754Z,10.34
2023-05-10T01:37:13.098Z,10.32
2023-05-10T01:38:00.301Z,10.32
2023-05-10T01:38:47.301Z,10.29
2023-05-10T01:39:27.201Z,10.34
2023-05-10T01:40:14.399Z,10.36
2023-05-10T01:41:18.558Z,10.36
2023-05-10T01:42:35.153Z,10.36
2023-05-10T01:43:12.088Z,10.43
2023-05-10T01:43:55.181Z,10.44
2023-05-10T01:44:36.692Z,10.46
2023-05-10T01:45:21.153Z,10.47
2023-05-10T01:46:18.541Z,10.47
2023-05-10T01:47:21.979Z,10.42
2023-05-10T01:48:20.961Z,10.46
2023-05-10T01:48:58.570Z,10.44
2023-05-10T01:49:54.972Z,10.39
2023-05-10T01:50:31.166Z,10.44
2023-05-10T01:51:03.605Z,10.42
2023-05-10T01:51:45.850Z,10.36
2023-05-10T01:52:20.788Z,10.34
2023-05-10T01:52:55.729Z,10.33
2023-05-10T01:53:28.620Z,10.37
2023-05-10T01:54:03.139Z,10.36
2023-05-10T01:54:36.576Z,10.32
2023-05-10T01:55:14.364Z,10.29
2023-05-10T01:55:53.494Z,10.29
2023-05-10T01:56:27.543Z,10.28
2023-05-10T01:57:06.672Z,10.29
2023-05-10T01:57:40.680Z,10.28
2023-05-10T01:58:16.473Z,10.32
2023-05-10T01:58:49.690Z,10.26
2023-05-10T01:59:23.280Z,10.23
2023-05-10T01:59:55.951Z,10.28
2023-05-10T02:00:28.895Z,10.28
2023-05-10T02:01:04.223Z,10.32
2023-05-10T02:01:39.043Z,10.28
2023-05-10T02:02:13.202Z,10.26
2023-05-10T02:02:50.769Z,10.24
2023-05-10T02:03:25.156Z,10.26
2023-05-10T02:03:58.263Z,10.26
2023-05-10T02:04:30.469Z,10.26
2023-05-10T02:05:04.999Z,10.23
2023-05-10T02:05:38.512Z,10.16
2023-05-10T02:06:13.798Z,10.23
2023-05-10T02:06:48.990Z,10.22
2023-05-10T02:07:22.505Z,10.20
2023-05-10T02:07:54.784Z,10.16
2023-05-10T02:08:27.372Z,10.16
2023-05-10T02:08:59.008Z,10.17
2023-05-10T02:09:33.061Z,10.22
2023-05-10T02:10:08.582Z,10.22
2023-05-10T02:10:41.115Z,10.22
2023-05-10T02:11:14.908Z,10.24
2023-05-10T02:11:49.620Z,10.26
2023-05-10T02:12:22.201Z,10.24
2023-05-10T02:12:54.961Z,10.30
2023-05-10T02:13:28.715Z,10.29
2023-05-10T02:14:02.349Z,10.26
2023-05-10T02:14:37.296Z,10.24
2023-05-10T02:15:11.611Z,10.29
2023-05-10T02:15:44.386Z,10.24
2023-05-10T02:16:17.934Z,10.26
2023-05-10T02:16:53.306Z,10.30
2023-05-10T02:17:27.014Z,10.32
2023-05-10T02:18:01.107Z,10.32
2023-05-10T02:18:35.894Z,10.29
2023-05-10T02:19:09.828Z,10.33
2023-05-10T02:19:43.293Z,10.32
2023-05-10T02:20:17.505Z,10.32
2023-05-10T02:20:49.504Z,10.34
2023-05-10T02:21:22.706Z,10.34
2023-05-10T02:21:57.012Z,10.34
2023-05-10T02:22:29.298Z,10.39
2023-05-10T02:23:03.017Z,10.40
2023-05-10T02:23:36.229Z,10.42
2023-05-10T02:24:09.731Z,10.39
2023-05-10T02:24:42.333Z,10.43
2023-05-10T02:25:15.006Z,10.40
2023-05-10T02:25:48.499Z,10.40
2023-05-10T02:26:24.535Z,10.44
2023-05-10T02:26:57.050Z,10.42
2023-05-10T02:27:30.134Z,10.42
2023-05-10T02:28:04.085Z,10.43
2023-05-10T02:28:37.197Z,10.42
2023-05-10T02:29:10.145Z,10.44
2023-05-10T02:29:42.297Z,10.42
2023-05-10T02:30:14.886Z,10.40
2023-05-10T02:30:48.640Z,10.42
2023-05-10T02:31:21.254Z,10.44
2023-05-10T02:31:55.220Z,10.50
2023-05-10T02:32:29.299Z,10.53
2023-05-10T02:33:01.805Z,10.51
2023-05-10T02:33:35.145Z,10.56
2023-05-10T02:34:08.916Z,10.56
2023-05-10T02:34:41.265Z,10.57
2023-05-10T02:35:13.455Z,10.56
2023-05-10T02:35:45.868Z,10.56
2023-05-10T02:36:17.994Z,10.54
2023-05-10T02:36:51.773Z,10.56
2023-05-10T02:37:24.449Z,10.53
2023-05-10T02:37:57.706Z,10.54
2023-05-10T02:38:30.253Z,10.53
2023-05-10T02:39:02.990Z,10.53
2023-05-10T02:39:35.361Z,10.53
2023-05-10T02:40:08.373Z,10.51
2023-05-10T02:40:42.511Z,10.47
2023-05-10T02:41:14.575Z,10.47
2023-05-10T02:41:48.930Z,10.46
2023-05-10T02:42:24.657Z,10.47
2023-05-10T02:42:58.050Z,10.46
2023-05-10T02:43:32.737Z,10.49
2023-05-10T02:44:09.032Z,10.42
2023-05-10T02:44:42.786Z,10.42
2023-05-10T02:45:18.654Z,10.40
2023-05-10T02:45:50.529Z,10.42
2023-05-10T02:46:22.313Z,10.40
2023-05-10T02:46:56.921Z,10.36
2023-05-10T02:47:30.056Z,10.36
2023-05-10T02:48:02.257Z,10.39
2023-05-10T02:48:34.003Z,10.44
2023-05-10T02:49:05.838Z,10.46
2023-05-10T02:49:37.527Z,10.43
2023-05-10T02:50:09.652Z,10.43
2023-05-10T02:50:44.979Z,10.43
2023-05-10T02:51:19.184Z,10.49
2023-05-10T02:51:55.045Z,10.40
2023-05-10T02:52:30.845Z,10.40
2023-05-10T02:53:10.811Z,10.39
2023-05-10T02:53:45.240Z,10.42
2023-05-10T02:54:21.192Z,10.43
2023-05-10T02:54:56.838Z,10.40
2023-05-10T02:55:33.980Z,10.39
2023-05-10T02:56:13.233Z,10.37
2023-05-10T02:56:50.591Z,10.33
2023-05-10T02:57:28.517Z,10.30
2023-05-10T02:58:02.172Z,10.30
2023-05-10T02:58:34.279Z,10.34
2023-05-10T02:59:06.078Z,10.30
2023-05-10T02:59:38.101Z,10.26
2023-05-10T03:00:10.183Z,10.24
2023-05-10T03:00:41.794Z,10.23
2023-05-10T03:01:13.529Z,10.24
2023-05-10T03:01:45.322Z,10.26
2023-05-10T03:02:17.254Z,10.29
2023-05-10T03:02:48.906Z,10.23
2023-05-10T03:03:21.218Z,10.24
2023-05-10T03:03:52.823Z,10.24
2023-05-10T03:04:24.425Z,10.22
2023-05-10T03:04:56.125Z,10.26
2023-05-10T03:05:27.806Z,10.28
2023-05-10T03:05:59.565Z,10.28
2023-05-10T03:06:31.349Z,10.26
2023-05-10T03:07:03.075Z,10.26
2023-05-10T03:07:35.284Z,10.29
2023-05-10T03:08:07.221Z,10.34
2023-05-10T03:08:39.165Z,10.33
2023-05-10T03:09:13.277Z,10.30
2023-05-10T03:09:44.935Z,10.28
2023-05-10T03:10:16.983Z,10.32
2023-05-10T03:11:00.813Z,10.32
2023-05-10T03:12:01.997Z,10.34
2023-05-10T03:12:49.173Z,10.39
2023-05-10T03:13:36.528Z,10.42
2023-05-10T03:14:10.889Z,10.39
2023-05-10T03:15:13.600Z,10.44
2023-05-10T03:16:02.624Z,10.44
2023-05-10T03:16:53.750Z,10.47
2023-05-10T03:17:56.446Z,10.44
2023-05-10T03:18:45.941Z,10.49
2023-05-10T03:19:51.990Z,10.51
2023-05-10T03:20:27.475Z,10.44
2023-05-10T03:21:04.191Z,10.47
2023-05-10T03:21:39.044Z,10.49
2023-05-10T03:22:14.271Z,10.42
2023-05-10T03:22:51.023Z,10.37
2023-05-10T03:23:28.820Z,10.37
2023-05-10T03:24:08.303Z,10.37
2023-05-10T03:24:43.220Z,10.34
2023-05-10T03:25:17.805Z,10.37
2023-05-10T03:25:51.609Z,10.39
2023-05-10T03:26:27.132Z,10.37
2023-05-10T03:27:03.854Z,10.37
2023-05-10T03:27:37.750Z,10.42
2023-05-10T03:28:09.935Z,10.40
2023-05-10T03:28:42.621Z,10.44
2023-05-10T03:29:15.350Z,10.44
2023-05-10T03:29:47.580Z,10.43
2023-05-10T03:30:20.680Z,10.46
2023-05-10T03:30:54.875Z,10.42
2023-05-10T03:31:26.917Z,10.47
2023-05-10T03:32:02.237Z,10.47
2023-05-10T03:32:35.717Z,10.47
2023-05-10T03:33:07.897Z,10.47
2023-05-10T03:33:50.352Z,10.46
2023-05-10T03:34:25.957Z,10.46
2023-05-10T03:34:57.542Z,10.44
2023-05-10T03:35:29.238Z,10.47
2023-05-10T03:36:01.069Z,10.49
2023-05-10T03:36:32.859Z,10.44
2023-05-10T03:37:04.468Z,10.43
2023-05-10T03:37:36.577Z,10.40
2023-05-10T03:38:08.211Z,10.42
2023-05-10T03:38:39.803Z,10.39
2023-05-10T03:39:11.655Z,10.39
2023-05-10T03:39:43.628Z,10.37
2023-05-10T03:40:15.631Z,10.42
2023-05-10T03:40:48.397Z,10.39
2023-05-10T03:41:20.127Z,10.37
2023-05-10T03:41:51.715Z,10.37
2023-05-10T03:42:23.336Z,10.36
2023-05-10T03:42:55.010Z,10.40
2023-05-10T03:43:26.625Z,10.39
2023-05-10T03:43:58.266Z,10.40
2023-05-10T03:44:29.990Z,10.37
2023-05-10T03:45:01.664Z,10.39
2023-05-10T03:45:33.290Z,10.39
2023-05-10T03:46:05.681Z,10.40
2023-05-10T03:46:37.324Z,10.40
2023-05-10T03:47:09.150Z,10.43
2023-05-10T03:47:41.740Z,10.43
2023-05-10T03:48:14.837Z,10.42
2023-05-10T03:48:46.527Z,10.46
2023-05-10T03:49:18.136Z,10.43
2023-05-10T03:49:49.773Z,10.44
2023-05-10T03:50:22.031Z,10.43
2023-05-10T03:50:53.752Z,10.40
2023-05-10T03:51:29.114Z,10.39
2023-05-10T03:52:00.762Z,10.39
2023-05-10T03:52:32.942Z,10.40
2023-05-10T03:53:04.675Z,10.40
2023-05-10T03:53:36.808Z,10.37
2023-05-10T03:54:08.428Z,10.40
2023-05-10T03:54:40.059Z,10.36
2023-05-10T03:55:11.702Z,10.37
2023-05-10T03:55:43.306Z,10.37
2023-05-10T03:56:14.906Z,10.44
2023-05-10T03:56:47.599Z,10.42
2023-05-10T03:57:19.338Z,10.42
2023-05-10T03:57:50.911Z,10.43
2023-05-10T03:58:22.937Z,10.44
2023-05-10T03:58:54.561Z,10.40
2023-05-10T03:59:26.200Z,10.43
2023-05-10T03:59:57.781Z,10.43
2023-05-10T04:00:29.340Z,10.42
2023-05-10T04:01:00.955Z,10.42
2023-05-10T04:01:32.603Z,10.43
2023-05-10T04:02:04.296Z,10.42
2023-05-10T04:02:35.983Z,10.47
2023-05-10T04:03:07.724Z,10.49
2023-05-10T04:03:39.729Z,10.54
2023-05-10T04:04:11.544Z,10.59
2023-05-10T04:04:43.442Z,10.59
2023-05-10T04:05:15.105Z,10.61
2023-05-10T04:05:46.734Z,10.67
2023-05-10T04:06:18.438Z,10.68
2023-05-10T04:06:50.260Z,10.68
2023-05-10T04:07:22.263Z,10.71
2023-05-10T04:07:53.950Z,10.78
2023-05-10T04:08:25.517Z,10.78
2023-05-10T04:08:57.175Z,10.81
2023-05-10T04:09:28.778Z,10.84
2023-05-10T04:10:00.527Z,10.82
2023-05-10T04:10:32.376Z,10.78
2023-05-10T04:11:12.167Z,10.75
2023-05-10T04:11:44.224Z,10.78
2023-05-10T04:12:15.846Z,10.82
2023-05-10T04:12:47.500Z,10.87
2023-05-10T04:13:20.090Z,10.88
2023-05-10T04:13:52.073Z,10.92
2023-05-10T04:14:23.890Z,10.92
2023-05-10T04:14:55.465Z,10.95
2023-05-10T04:15:27.084Z,10.92
2023-05-10T04:15:58.728Z,11.01
2023-05-10T04:16:30.414Z,11.05
2023-05-10T04:17:02.409Z,11.02
2023-05-10T04:17:34.098Z,11.04
2023-05-10T04:18:08.568Z,11.01
2023-05-10T04:18:41.119Z,11.04
2023-05-10T04:19:12.831Z,11.09
2023-05-10T04:19:44.448Z,11.19
2023-05-10T04:20:16.667Z,11.21
2023-05-10T04:20:48.476Z,11.25
2023-05-10T04:21:20.208Z,11.29
2023-05-10T04:21:51.876Z,11.39
2023-05-10T04:22:23.493Z,11.42
2023-05-10T04:22:55.111Z,11.42
2023-05-10T04:23:26.949Z,11.36
2023-05-10T04:23:58.542Z,11.42
2023-05-10T04:24:30.142Z,11.38
2023-05-10T04:25:01.822Z,11.42
2023-05-10T04:25:36.675Z,11.43
2023-05-10T04:26:08.510Z,11.49
2023-05-10T04:26:40.116Z,11.53
2023-05-10T04:27:12.546Z,11.49
2023-05-10T04:27:44.255Z,11.35
2023-05-10T04:28:15.982Z,11.39
2023-05-10T04:28:47.854Z,11.46
2023-05-10T04:29:19.517Z,11.49
2023-05-10T04:29:51.664Z,11.56
2023-05-10T04:30:23.245Z,11.55
2023-05-10T04:31:01.241Z,11.55
2023-05-10T04:31:32.913Z,11.63
2023-05-10T04:32:04.840Z,11.65
2023-05-10T04:32:36.432Z,11.59
2023-05-10T04:33:08.226Z,11.60
2023-05-10T04:33:39.931Z,11.63
2023-05-10T04:34:11.548Z,11.65
2023-05-10T04:34:43.227Z,11.62
2023-05-10T04:35:15.978Z,11.70
2023-05-10T04:35:47.684Z,11.71
2023-05-10T04:36:19.321Z,11.71
2023-05-10T04:36:51.221Z,11.66
2023-05-10T04:37:24.038Z,11.71
2023-05-10T04:37:55.721Z,11.73
2023-05-10T04:38:28.020Z,11.70
2023-05-10T04:38:59.624Z,11.71
2023-05-10T04:39:31.285Z,11.73
2023-05-10T04:40:04.266Z,11.77
2023-05-10T04:40:35.939Z,11.65
2023-05-10T04:41:11.682Z,11.65
2023-05-10T04:41:43.315Z,11.67
2023-05-10T04:42:16.035Z,11.73
2023-05-10T04:42:47.797Z,11.80
2023-05-10T04:43:19.621Z,11.80
2023-05-10T04:43:51.322Z,11.80
2023-05-10T04:44:22.887Z,11.83
2023-05-10T04:44:54.503Z,11.74
2023-05-10T04:45:26.111Z,11.76
2023-05-10T04:45:58.146Z,11.76
2023-05-10T04:46:29.830Z,11.79
2023-05-10T04:47:03.287Z,11.80
2023-05-10T04:47:35.055Z,11.83
2023-05-10T04:48:06.902Z,11.87
2023-05-10T04:48:38.590Z,11.91
2023-05-10T04:49:10.193Z,11.88
2023-05-10T04:49:41.754Z,11.80
2023-05-10T04:50:13.442Z,11.87
2023-05-10T04:50:45.151Z,11.90
2023-05-10T04:51:16.842Z,11.81
2023-05-10T04:51:48.463Z,11.77
2023-05-10T04:52:20.250Z,11.86
2023-05-10T04:52:53.208Z,11.91
2023-05-10T04:53:25.027Z,11.88
2023-05-10T04:54:05.099Z,11.84
2023-05-10T04:54:37.951Z,11.83
2023-05-10T04:55:11.012Z,11.86
2023-05-10T04:55:42.863Z,11.76
2023-05-10T04:56:14.497Z,11.76
2023-05-10T04:56:46.295Z,11.81
2023-05-10T04:57:17.903Z,11.94
2023-05-10T04:57:49.585Z,12.02
2023-05-10T04:58:21.315Z,12.05
2023-05-10T04:58:52.951Z,12.01
2023-05-10T04:59:24.651Z,11.98
2023-05-10T04:59:56.522Z,12.00
2023-05-10T05:00:28.139Z,12.07
2023-05-10T05:01:09.449Z,12.16
2023-05-10T05:01:41.293Z,12.05
2023-05-10T05:02:12.901Z,12.05
2023-05-10T05:02:46.411Z,12.04
2023-05-10T05:03:18.155Z,12.04
2023-05-10T05:03:49.983Z,12.02
2023-05-10T05:04:21.641Z,11.94
2023-05-10T05:04:53.348Z,11.83
2023-05-10T05:05:25.136Z,11.88
2023-05-10T05:05:56.741Z,11.97
2023-05-10T05:06:28.482Z,12.00
2023-05-10T05:07:00.336Z,12.13
2023-05-10T05:07:31.938Z,12.18
2023-05-10T05:08:03.735Z,12.22
2023-05-10T05:08:35.308Z,12.28
2023-05-10T05:09:06.927Z,12.32
2023-05-10T05:09:38.586Z,12.32
2023-05-10T05:10:10.467Z,12.35
2023-05-10T05:10:42.022Z,12.37
2023-05-10T05:11:13.679Z,12.35
2023-05-10T05:11:45.502Z,12.25
2023-05-10T05:12:17.153Z,12.34
2023-05-10T05:12:48.771Z,12.29
2023-05-10T05:13:20.504Z,12.32
2023-05-10T05:13:52.204Z,12.32
2023-05-10T05:14:25.978Z,12.37
2023-05-10T05:14:57.720Z,12.45
2023-05-10T05:15:29.455Z,12.48
2023-05-10T05:16:02.452Z,12.56
2023-05-10T05:16:34.183Z,12.59
2023-05-10T05:17:05.946Z,12.58
2023-05-10T05:17:37.889Z,12.65
2023-05-10T05:18:09.576Z,12.62
2023-05-10T05:18:41.262Z,12.62
2023-05-10T05:19:13.157Z,12.65
2023-05-10T05:19:44.751Z,12.62
2023-05-10T05:20:16.784Z,12.66
2023-05-10T05:20:48.604Z,12.65
2023-05-10T05:21:20.915Z,12.72
2023-05-10T05:21:52.500Z,12.73
2023-05-10T05:22:29.137Z,12.79
2023-05-10T05:23:00.952Z,12.77
2023-05-10T05:23:32.527Z,12.87
2023-05-10T05:24:04.578Z,12.76
2023-05-10T05:24:38.751Z,12.69
2023-05-10T05:25:10.348Z,12.77
2023-05-10T05:25:43.068Z,12.83
2023-05-10T05:26:15.978Z,12.86
2023-05-10T05:26:48.247Z,12.86
2023-05-10T05:27:21.953Z,12.85
2023-05-10T05:27:53.581Z,12.89
2023-05-10T05:28:25.203Z,12.75
2023-05-10T05:28:56.922Z,12.85
2023-05-10T05:29:28.494Z,12.87
2023-05-10T05:30:00.184Z,12.97
2023-05-10T05:30:31.736Z,13.13
2023-05-10T05:31:03.368Z,13.13
2023-05-10T05:31:35.013Z,13.24
2023-05-10T05:32:06.863Z,13.27
2023-05-10T05:32:38.510Z,13.33
2023-05-10T05:33:10.252Z,13.34
2023-05-10T05:33:41.879Z,13.26
2023-05-10T05:34:13.449Z,13.17
2023-05-10T05:34:48.465Z,13.10
2023-05-10T05:35:20.141Z,13.17
2023-05-10T05:35:51.923Z,13.26
2023-05-10T05:36:23.626Z,13.21
2023-05-10T05:36:55.358Z,13.26
2023-05-10T05:37:27.544Z,12.99
2023-05-10T05:37:59.110Z,12.97
2023-05-10T05:38:30.753Z,13.47
2023-05-10T05:39:02.365Z,13.48
2023-05-10T05:39:34.000Z,13.53
2023-05-10T05:40:06.439Z,13.47
2023-05-10T05:40:38.078Z,13.71
2023-05-10T05:41:09.712Z,13.54
2023-05-10T05:41:41.358Z,13.55
2023-05-10T05:42:14.359Z,13.72
2023-05-10T05:42:45.956Z,13.51
2023-05-10T05:43:17.550Z,13.38
2023-05-10T05:43:49.301Z,13.40
2023-05-10T05:44:20.875Z,13.45
2023-05-10T05:44:52.439Z,13.53
2023-05-10T05:45:24.145Z,13.53
2023-05-10T05:45:57.020Z,13.45
2023-05-10T05:46:28.786Z,13.54
2023-05-10T05:47:00.390Z,13.40
2023-05-10T05:47:32.003Z,13.54
2023-05-10T05:48:03.976Z,13.76
2023-05-10T05:48:35.661Z,13.71
2023-05-10T05:49:07.267Z,13.85
2023-05-10T05:49:38.912Z,13.74
2023-05-10T05:50:10.926Z,13.66
2023-05-10T05:50:42.627Z,13.71
2023-05-10T05:51:14.410Z,13.64
2023-05-10T05:51:46.272Z,13.65
2023-05-10T05:52:18.096Z,13.59
2023-05-10T05:52:49.759Z,13.69
2023-05-10T05:53:21.404Z,13.65
2023-05-10T05:53:53.047Z,13.85
2023-05-10T05:54:24.684Z,13.90
2023-05-10T05:54:56.377Z,13.98
2023-05-10T05:55:28.090Z,13.85
2023-05-10T05:56:00.130Z,13.89
2023-05-10T05:56:31.763Z,14.01
2023-05-10T05:57:03.505Z,14.05
2023-05-10T05:57:35.107Z,14.09
2023-05-10T05:58:06.926Z,14.13
2023-05-10T05:58:38.609Z,14.17
2023-05-10T05:59:10.318Z,14.19
2023-05-10T05:59:44.888Z,14.26
2023-05-10T06:00:17.236Z,14.29
2023-05-10T06:00:49.181Z,14.34
2023-05-10T06:01:21.180Z,14.32
2023-05-10T06:01:52.896Z,14.29
2023-05-10T06:02:24.561Z,14.13
2023-05-10T06:02:56.377Z,14.22
2023-05-10T06:03:28.326Z,14.26
2023-05-10T06:04:00.399Z,14.12
2023-05-10T06:04:32.187Z,14.06
2023-05-10T06:05:04.047Z,14.03
2023-05-10T06:05:35.695Z,14.12
2023-05-10T06:06:07.632Z,14.17
2023-05-10T06:06:39.432Z,14.24
2023-05-10T06:07:11.298Z,14.34
2023-05-10T06:07:46.113Z,14.27
2023-05-10T06:08:17.847Z,14.47
2023-05-10T06:08:49.454Z,14.47
2023-05-10T06:09:21.290Z,14.51
2023-05-10T06:09:52.875Z,14.32
2023-05-10T06:10:24.736Z,14.23
2023-05-10T06:10:56.334Z,14.44
2023-05-10T06:11:27.917Z,14.27
2023-05-10T06:11:59.545Z,14.29
2023-05-10T06:12:31.176Z,14.43
2023-05-10T06:13:03.844Z,14.37
2023-05-10T06:13:36.363Z,14.41
2023-05-10T06:14:08.950Z,14.43
2023-05-10T06:14:40.571Z,14.50
2023-05-10T06:15:12.389Z,14.47
2023-05-10T06:15:44.223Z,14.59
2023-05-10T06:16:15.990Z,14.81
2023-05-10T06:16:47.995Z,14.94
2023-05-10T06:17:19.790Z,14.91
2023-05-10T06:17:51.526Z,14.73
2023-05-10T06:18:23.101Z,14.74
2023-05-10T06:18:54.999Z,14.84
2023-05-10T06:19:27.486Z,14.78
2023-05-10T06:19:59.125Z,14.88
2023-05-10T06:20:32.527Z,14.81
2023-05-10T06:21:04.291Z,14.91
2023-05-10T06:21:35.889Z,14.96
2023-05-10T06:22:07.500Z,14.92
2023-05-10T06:22:39.125Z,14.87
2023-05-10T06:23:10.727Z,15.05
2023-05-10T06:23:42.363Z,14.92
2023-05-10T06:24:14.041Z,14.87
2023-05-10T06:24:45.697Z,14.95
2023-05-10T06:25:19.226Z,15.02
2023-05-10T06:25:51.055Z,15.12
2023-05-10T06:26:22.662Z,15.35
2023-05-10T06:26:54.409Z,15.31
2023-05-10T06:27:25.990Z,15.47
2023-05-10T06:27:58.369Z,15.53
2023-05-10T06:28:32.313Z,15.52
2023-05-10T06:29:03.913Z,15.54
2023-05-10T06:29:35.592Z,15.56
2023-05-10T06:30:12.912Z,15.12
2023-05-10T06:30:45.538Z,15.22
2023-05-10T06:31:17.233Z,14.99
2023-05-10T06:31:49.211Z,14.99
2023-05-10T06:32:20.878Z,14.85
2023-05-10T06:32:53.060Z,14.75
2023-05-10T06:33:24.689Z,14.78
2023-05-10T06:33:56.960Z,14.88
2023-05-10T06:34:28.720Z,14.96
2023-05-10T06:35:00.370Z,15.11
2023-05-10T06:35:34.561Z,15.09
2023-05-10T06:36:06.559Z,15.11
2023-05-10T06:36:38.215Z,15.22
2023-05-10T06:37:09.855Z,15.40
2023-05-10T06:37:41.495Z,15.29
2023-05-10T06:38:13.307Z,15.33
2023-05-10T06:38:44.898Z,15.28
2023-05-10T06:39:16.998Z,15.19
2023-05-10T06:39:48.589Z,15.35
2023-05-10T06:40:20.578Z,15.42
2023-05-10T06:40:52.208Z,15.29
2023-05-10T06:41:24.795Z,15.33
2023-05-10T06:41:56.585Z,15.31
2023-05-10T06:42:28.373Z,15.35
2023-05-10T06:43:00.045Z,15.49
2023-05-10T06:43:31.685Z,15.44
2023-05-10T06:44:03.316Z,15.43
2023-05-10T06:44:34.933Z,15.39
2023-05-10T06:45:07.444Z,15.43
2023-05-10T06:45:39.100Z,15.40
2023-05-10T06:46:10.825Z,15.42
2023-05-10T06:46:42.932Z,15.33
2023-05-10T06:47:14.712Z,15.29
2023-05-10T06:47:46.906Z,15.19
2023-05-10T06:48:18.583Z,15.35
2023-05-10T06:48:50.495Z,15.32
2023-05-10T06:49:22.261Z,15.36
2023-05-10T06:49:54.015Z,15.57
2023-05-10T06:50:25.936Z,15.52
2023-05-10T06:50:57.570Z,15.57
2023-05-10T06:51:29.173Z,15.73
2023-05-10T06:52:00.852Z,15.84
2023-05-10T06:52:32.687Z,15.86
2023-05-10T06:53:04.929Z,15.49
2023-05-10T06:53:36.706Z,15.67
2023-05-10T06:54:08.306Z,15.53
2023-05-10T06:54:39.916Z,15.70
2023-05-10T06:55:11.612Z,15.89
2023-05-10T06:55:43.254Z,15.67
2023-05-10T06:56:15.124Z,15.69
2023-05-10T06:56:46.706Z,15.71
2023-05-10T06:57:30.386Z,15.43
2023-05-10T06:58:03.584Z,15.64
2023-05-10T06:58:35.166Z,15.60
2023-05-10T06:59:06.810Z,15.64
2023-05-10T06:59:38.805Z,15.70
2023-05-10T07:00:11.457Z,15.61
2023-05-10T07:00:44.810Z,15.63
2023-05-10T07:01:16.719Z,15.70
2023-05-10T07:01:49.039Z,15.67
2023-05-10T07:02:20.855Z,15.64
2023-05-10T07:02:53.157Z,15.73
2023-05-10T07:03:24.927Z,15.84
2023-05-10T07:03:56.567Z,15.93
2023-05-10T07:04:28.806Z,15.83
2023-05-10T07:05:02.866Z,15.77
2023-05-10T07:05:35.543Z,15.84
2023-05-10T07:06:13.309Z,15.94
2023-05-10T07:06:50.806Z,16.17
2023-05-10T07:07:22.420Z,16.18
2023-05-10T07:07:54.035Z,16.14
2023-05-10T07:08:25.655Z,16.15
2023-05-10T07:08:57.314Z,16.24
2023-05-10T07:09:29.328Z,16.31
2023-05-10T07:10:01.476Z,16.20
2023-05-10T07:10:34.039Z,15.96
2023-05-10T07:11:10.086Z,15.98
2023-05-10T07:11:41.689Z,15.93
2023-05-10T07:12:15.403Z,16.04
2023-05-10T07:12:47.465Z,16.07